createdAt,value
2023-03-06T00:01:30.408Z,51.25
2023-03-06T00:04:32.454Z,51.96
2023-03-06T00:07:34.534Z,52.25
2023-03-06T00:10:37.363Z,52.32
2023-03-06T00:13:39.705Z,52.24
2023-03-06T00:16:41.748Z,52.14
2023-03-06T00:19:43.871Z,52.00
2023-03-06T00:22:46.538Z,52.13
2023-03-06T00:25:48.764Z,52.48
2023-03-06T00:28:50.795Z,52.47
2023-03-06T00:31:52.864Z,51.22
2023-03-06T00:34:55.816Z,51.95
2023-03-06T00:37:59.856Z,51.61
2023-03-06T00:41:12.981Z,52.07
2023-03-06T00:44:15.113Z,51.99
2023-03-06T00:47:17.416Z,52.27
2023-03-06T00:50:19.503Z,51.77
2023-03-06T00:53:21.553Z,51.51
2023-03-06T00:56:24.961Z,52.44
2023-03-06T00:59:27.997Z,51.79
2023-03-06T01:02:30.178Z,52.33
2023-03-06T01:05:35.994Z,52.02
2023-03-06T01:08:38.982Z,52.42
2023-03-06T01:11:41.132Z,52.53
2023-03-06T01:14:46.267Z,52.63
2023-03-06T01:17:51.770Z,52.50
2023-03-06T01:20:53.808Z,52.63
2023-03-06T01:23:55.888Z,52.61
2023-03-06T01:26:59.239Z,52.69
2023-03-06T01:30:02.086Z,53.03
2023-03-06T01:33:04.299Z,52.95
2023-03-06T01:36:09.675Z,53.42
2023-03-06T01:39:12.228Z,52.79
2023-03-06T01:42:14.884Z,52.96
2023-03-06T01:45:17.918Z,52.76
2023-03-06T01:48:23.224Z,52.94
2023-03-06T01:51:31.251Z,54.68
2023-03-06T01:54:46.982Z,55.25
2023-03-06T01:57:54.171Z,55.75
2023-03-06T02:00:56.299Z,56.83
2023-03-06T02:04:00.596Z,56.82
2023-03-06T02:07:06.899Z,56.86
2023-03-06T02:10:10.406Z,57.03
2023-03-06T02:13:12.548Z,57.34
2023-03-06T02:16:16.546Z,56.65
2023-03-06T02:19:36.899Z,56.46
2023-03-06T02:23:20.783Z,55.41
2023-03-06T02:26:24.423Z,56.02
2023-03-06T02:29:29.626Z,55.25
2023-03-06T02:32:35.466Z,54.64
2023-03-06T02:35:39.374Z,54.81
2023-03-06T02:38:48.957Z,53.83
2023-03-06T02:41:52.685Z,53.92
2023-03-06T02:44:59.162Z,53.65
2023-03-06T02:48:01.901Z,52.54
2023-03-06T02:51:04.266Z,53.00
2023-03-06T02:54:07.520Z,52.73
2023-03-06T02:57:09.719Z,53.71
2023-03-06T03:00:12.924Z,54.35
2023-03-06T03:03:15.476Z,54.90
2023-03-06T03:06:17.638Z,54.88
2023-03-06T03:09:20.343Z,54.55
2023-03-06T03:12:22.975Z,54.44
2023-03-06T03:15:26.105Z,54.76
2023-03-06T03:18:36.005Z,55.78
2023-03-06T03:21:40.860Z,55.58
2023-03-06T03:24:43.309Z,56.97
2023-03-06T03:27:45.971Z,57.02
2023-03-06T03:30:48.398Z,57.41
2023-03-06T03:33:50.777Z,57.44
2023-03-06T03:36:54.925Z,58.01
2023-03-06T03:39:57.123Z,58.77
2023-03-06T03:42:59.917Z,59.10
2023-03-06T03:46:02.643Z,59.41
2023-03-06T03:49:06.071Z,59.37
2023-03-06T03:52:08.530Z,59.42
2023-03-06T03:55:12.048Z,60.08
2023-03-06T03:58:16.052Z,60.24
2023-03-06T04:01:18.472Z,59.41
2023-03-06T04:04:21.287Z,59.61
2023-03-06T04:07:24.137Z,59.48
2023-03-06T04:10:26.669Z,60.96
2023-03-06T04:13:29.865Z,61.04
2023-03-06T04:16:32.052Z,61.52
2023-03-06T04:19:34.468Z,61.10
2023-03-06T04:22:37.248Z,60.43
2023-03-06T04:25:40.890Z,61.33
2023-03-06T04:28:46.234Z,61.12
2023-03-06T04:31:48.548Z,61.11
2023-03-06T04:34:51.100Z,60.48
2023-03-06T04:37:53.626Z,60.41
2023-03-06T04:40:57.906Z,60.37
2023-03-06T04:44:00.182Z,60.47
2023-03-06T04:47:02.274Z,59.94
2023-03-06T04:50:05.208Z,59.58
2023-03-06T04:53:08.741Z,61.81
2023-03-06T04:56:11.022Z,61.49
2023-03-06T04:59:13.364Z,63.01
2023-03-06T05:02:15.464Z,63.70
2023-03-06T05:05:18.376Z,64.81
2023-03-06T05:08:20.428Z,64.83
2023-03-06T05:11:22.504Z,64.57
2023-03-06T05:14:24.562Z,63.35
2023-03-06T05:17:26.723Z,63.55
2023-03-06T05:20:28.904Z,61.91
2023-03-06T05:23:34.085Z,62.28
2023-03-06T05:26:36.178Z,60.65
2023-03-06T05:29:38.796Z,61.17
2023-03-06T05:32:41.158Z,60.40
2023-03-06T05:35:47.511Z,60.37
2023-03-06T05:38:49.756Z,59.73
2023-03-06T05:41:52.052Z,59.72
2023-03-06T05:44:54.155Z,59.19
2023-03-06T05:47:56.288Z,59.59
2023-03-06T05:50:59.830Z,59.71
2023-03-06T05:54:01.920Z,59.04
2023-03-06T05:57:05.369Z,59.51
2023-03-06T06:00:09.747Z,58.96
2023-03-06T06:03:20.398Z,58.37
2023-03-06T06:06:22.473Z,58.77
2023-03-06T06:09:25.800Z,58.40
2023-03-06T06:12:28.316Z,58.95
2023-03-06T06:15:30.367Z,58.83
2023-03-06T06:18:32.555Z,57.98
2023-03-06T06:21:34.766Z,58.27
2023-03-06T06:24:36.983Z,57.80
2023-03-06T06:27:39.466Z,57.06
2023-03-06T06:30:41.531Z,57.27
2023-03-06T06:33:43.709Z,56.87
2023-03-06T06:36:46.483Z,56.51
2023-03-06T06:39:48.734Z,57.18
2023-03-06T06:57:37.071Z,55.19
2023-03-06T07:00:39.124Z,54.98
2023-03-06T07:03:41.387Z,55.45
2023-03-06T07:06:44.885Z,54.21
2023-03-06T07:09:46.931Z,54.16
2023-03-06T07:12:49.232Z,53.46
2023-03-06T07:15:51.438Z,53.37
2023-03-06T07:18:53.482Z,53.49
2023-03-06T07:21:55.562Z,53.22
2023-03-06T07:24:57.620Z,53.47
2023-03-06T07:27:59.788Z,53.69
2023-03-06T07:31:01.954Z,52.75
2023-03-06T07:34:05.112Z,52.39
2023-03-06T07:37:07.445Z,51.99
2023-03-06T07:40:11.096Z,51.89
2023-03-06T07:43:19.416Z,50.25
2023-03-06T07:46:30.929Z,49.74
2023-03-06T07:49:35.336Z,49.77
2023-03-06T07:52:37.856Z,49.30
2023-03-06T07:55:41.604Z,49.23
2023-03-06T07:58:45.476Z,48.78
2023-03-06T08:01:47.681Z,48.59
2023-03-06T08:04:54.080Z,48.77
2023-03-06T08:07:56.210Z,48.09
2023-03-06T08:10:58.283Z,48.16
2023-03-06T08:14:00.961Z,48.48
2023-03-06T08:17:03.154Z,47.81
2023-03-06T08:20:06.398Z,48.06
2023-03-06T08:23:08.641Z,48.21
2023-03-06T08:26:17.112Z,47.96
2023-03-06T08:29:19.430Z,47.88
2023-03-06T08:32:21.664Z,47.89
2023-03-06T08:35:23.860Z,47.52
2023-03-06T08:38:25.994Z,48.20
2023-03-06T08:41:28.308Z,48.50
2023-03-06T08:44:30.427Z,48.46
2023-03-06T08:47:32.519Z,48.58
2023-03-06T08:50:34.660Z,48.00
2023-03-06T08:53:43.539Z,48.62
2023-03-06T08:56:46.678Z,47.12
2023-03-06T08:59:48.833Z,47.35
2023-03-06T09:02:50.964Z,46.70
2023-03-06T09:05:53.251Z,47.30
2023-03-06T09:08:55.840Z,47.85
2023-03-06T09:11:58.020Z,47.43
2023-03-06T09:15:03.845Z,47.39
2023-03-06T09:18:06.168Z,47.39
2023-03-06T09:21:09.443Z,47.14
2023-03-06T09:24:12.772Z,46.54
2023-03-06T09:27:14.891Z,47.06
2023-03-06T09:30:18.096Z,47.11
2023-03-06T09:33:20.760Z,47.60
2023-03-06T09:36:23.424Z,47.67
2023-03-06T09:39:26.501Z,46.87
2023-03-06T09:42:29.361Z,47.48
2023-03-06T09:45:36.763Z,48.00
2023-03-06T09:48:53.827Z,47.44
2023-03-06T09:52:10.839Z,47.26
2023-03-06T09:55:29.904Z,47.00
2023-03-06T09:58:41.540Z,47.40
2023-03-06T10:01:53.304Z,47.65
2023-03-06T10:05:01.812Z,47.58
2023-03-06T10:08:11.986Z,47.97
2023-03-06T10:11:21.670Z,48.07
2023-03-06T10:14:48.798Z,48.89
2023-03-06T10:17:51.391Z,48.35
2023-03-06T10:21:18.795Z,49.03
2023-03-06T10:24:35.831Z,50.16
2023-03-06T10:27:47.153Z,52.20
2023-03-06T10:31:10.831Z,52.85
2023-03-06T10:35:05.330Z,53.73
2023-03-06T10:38:37.812Z,54.70
2023-03-06T10:41:59.940Z,55.34
2023-03-06T10:45:21.914Z,56.46
2023-03-06T10:48:58.353Z,57.38
2023-03-06T10:52:14.649Z,58.15
2023-03-06T10:55:34.952Z,58.73
2023-03-06T10:58:36.977Z,58.70
2023-03-06T11:01:44.956Z,59.44
2023-03-06T11:04:53.002Z,59.40
2023-03-06T11:07:59.266Z,59.07
2023-03-06T11:11:07.748Z,58.84
2023-03-06T11:14:23.148Z,58.87
2023-03-06T11:17:30.982Z,58.74
2023-03-06T11:20:51.929Z,58.65
2023-03-06T11:23:58.049Z,58.26
2023-03-06T11:27:09.187Z,58.42
2023-03-06T11:30:22.423Z,58.89
2023-03-06T11:33:30.769Z,58.50
2023-03-06T11:36:47.515Z,58.69
2023-03-06T11:40:10.659Z,59.08
2023-03-06T11:43:25.372Z,59.23
2023-03-06T11:46:40.626Z,59.40
2023-03-06T11:50:20.116Z,60.81
2023-03-06T11:53:39.432Z,60.53
2023-03-06T11:56:47.467Z,60.78
2023-03-06T12:00:14.859Z,60.15
2023-03-06T12:03:37.717Z,60.35
2023-03-06T12:06:39.696Z,60.35
2023-03-06T12:09:47.025Z,60.80
2023-03-06T12:13:15.249Z,61.22
2023-03-06T12:16:32.311Z,61.94
2023-03-06T12:20:18.161Z,61.46
2023-03-06T12:23:36.028Z,61.31
2023-03-06T12:27:01.357Z,62.09
2023-03-06T12:30:25.528Z,61.18
2023-03-06T12:33:55.679Z,61.58
2023-03-06T12:37:13.708Z,62.43
2023-03-06T12:40:28.696Z,62.14
2023-03-06T12:43:45.768Z,61.97
2023-03-06T12:46:56.420Z,61.37
2023-03-06T12:50:04.044Z,60.42
2023-03-06T12:53:11.967Z,60.92
2023-03-06T12:56:17.227Z,59.56
2023-03-06T12:59:37.580Z,59.46
2023-03-06T13:02:39.872Z,59.73
2023-03-06T13:05:51.044Z,59.95
2023-03-06T13:09:08.761Z,59.89
2023-03-06T13:12:25.753Z,59.15
2023-03-06T13:15:56.467Z,59.42
2023-03-06T13:19:03.590Z,59.55
2023-03-06T13:22:15.078Z,59.15
2023-03-06T13:25:17.118Z,59.02
2023-03-06T13:28:24.678Z,58.66
2023-03-06T13:31:32.884Z,58.55
2023-03-06T13:34:36.408Z,58.56
2023-03-06T13:37:47.627Z,58.44
2023-03-06T13:40:49.793Z,58.82
2023-03-06T13:43:55.936Z,58.73
2023-03-06T13:47:01.284Z,59.54
2023-03-06T13:50:19.517Z,60.94
2023-03-06T13:53:53.393Z,60.74
2023-03-06T13:57:23.447Z,60.03
2023-03-06T14:00:56.006Z,60.50
2023-03-06T14:04:13.035Z,59.61
2023-03-06T14:07:35.894Z,61.47
2023-03-06T14:10:39.131Z,60.50
2023-03-06T14:13:50.726Z,60.75
2023-03-06T14:16:53.712Z,59.92
2023-03-06T14:20:00.799Z,60.81
2023-03-06T14:23:21.216Z,60.21
2023-03-06T14:26:26.047Z,61.36
2023-03-06T14:29:29.995Z,60.43
2023-03-06T14:32:32.816Z,59.75
2023-03-06T14:35:34.975Z,61.17
2023-03-06T14:38:45.250Z,62.62
2023-03-06T14:41:47.877Z,62.33
2023-03-06T14:45:02.428Z,63.31
2023-03-06T14:48:06.742Z,62.96
2023-03-06T14:51:17.655Z,63.18
2023-03-06T14:54:25.312Z,62.86
2023-03-06T14:57:27.497Z,63.74
2023-03-06T15:00:40.260Z,64.04
2023-03-06T15:03:48.348Z,64.76
2023-03-06T15:06:51.505Z,64.20
2023-03-06T16:27:25.820Z,68.51
2023-03-06T16:30:33.488Z,69.12
2023-03-06T16:33:35.726Z,69.31
2023-03-06T16:36:38.204Z,69.27
2023-03-06T16:39:40.318Z,69.16
2023-03-06T16:42:42.395Z,68.50
2023-03-06T16:45:44.942Z,67.99
2023-03-06T16:48:48.208Z,68.42
2023-03-06T16:51:51.533Z,67.83
2023-03-06T16:54:54.138Z,67.92
2023-03-06T16:57:56.521Z,67.92
2023-03-06T17:00:59.320Z,68.65
2023-03-06T17:04:01.791Z,68.84
2023-03-06T17:07:04.204Z,68.55
2023-03-06T17:10:09.509Z,67.61
2023-03-06T17:13:12.088Z,66.93
2023-03-06T17:16:18.605Z,67.76
2023-03-06T17:19:20.801Z,67.44
2023-03-06T17:22:23.407Z,67.03
2023-03-06T17:25:25.734Z,66.91
2023-03-06T17:28:29.112Z,68.02
2023-03-06T17:31:31.337Z,69.34
2023-03-06T17:34:33.916Z,69.37
2023-03-06T17:37:36.142Z,69.00
2023-03-06T17:40:38.414Z,68.96
2023-03-06T17:43:41.086Z,69.61
2023-03-06T17:46:43.867Z,68.57
2023-03-06T17:49:46.390Z,67.67
2023-03-06T17:52:49.854Z,68.41
2023-03-06T17:55:52.215Z,70.02
2023-03-06T17:58:55.454Z,68.36
2023-03-06T18:01:58.705Z,68.53
2023-03-06T18:05:01.195Z,69.93
2023-03-06T18:08:03.994Z,70.57
2023-03-06T18:11:08.428Z,70.92
2023-03-06T18:14:10.673Z,70.53
2023-03-06T18:17:13.507Z,71.14
2023-03-06T18:20:16.055Z,70.90
2023-03-06T18:23:18.144Z,71.70
2023-03-06T18:26:24.012Z,70.53
2023-03-06T18:29:26.174Z,70.45
2023-03-06T18:32:28.541Z,70.55
2023-03-06T18:35:31.141Z,71.45
2023-03-06T18:38:33.950Z,71.41
2023-03-06T18:41:37.236Z,72.45
2023-03-06T18:44:39.823Z,73.81
2023-03-06T18:47:42.343Z,74.54
2023-03-06T18:50:44.503Z,76.47
2023-03-06T18:53:47.025Z,77.45
2023-03-06T18:56:49.425Z,78.56
2023-03-06T18:59:51.782Z,79.27
2023-03-06T19:02:54.227Z,81.51
2023-03-06T19:05:56.633Z,81.70
2023-03-06T19:08:59.124Z,82.93
2023-03-06T19:12:03.626Z,82.50
2023-03-06T19:15:06.501Z,82.04
2023-03-06T19:18:08.810Z,82.57
2023-03-06T19:21:22.212Z,82.43
2023-03-06T19:24:24.780Z,83.11
2023-03-06T19:27:27.161Z,82.70
2023-03-06T19:30:29.560Z,81.65
2023-03-06T19:33:31.680Z,82.35
2023-03-06T19:36:34.805Z,82.59
2023-03-06T19:39:36.970Z,82.92
2023-03-06T19:42:39.395Z,83.14
2023-03-06T19:45:44.003Z,82.67
2023-03-06T19:48:46.578Z,82.13
2023-03-06T19:51:49.060Z,82.35
2023-03-06T19:54:52.359Z,82.49
2023-03-06T19:57:54.803Z,82.53
2023-03-06T20:01:07.167Z,82.53
2023-03-06T20:04:09.478Z,82.26
2023-03-06T20:07:11.959Z,82.67
2023-03-06T20:10:14.679Z,82.79
2023-03-06T20:13:20.208Z,83.02
2023-03-06T20:16:22.612Z,82.77
2023-03-06T20:19:25.031Z,82.69
2023-03-06T20:22:27.765Z,82.41
2023-03-06T20:25:30.589Z,81.82
2023-03-06T20:28:33.878Z,81.82
2023-03-06T20:31:36.775Z,82.11
2023-03-06T20:34:40.006Z,82.55
2023-03-06T20:37:42.314Z,82.24
2023-03-06T20:40:45.315Z,82.47
2023-03-06T20:43:48.830Z,82.72
2023-03-06T20:46:52.149Z,82.83
2023-03-06T20:49:54.552Z,83.93
2023-03-06T20:52:58.543Z,83.91
2023-03-06T20:56:01.598Z,84.07
2023-03-06T20:59:04.094Z,84.42
2023-03-06T21:02:06.699Z,83.34
2023-03-06T21:05:09.365Z,82.61
2023-03-06T21:08:11.656Z,83.47
2023-03-06T21:11:13.817Z,83.03
2023-03-06T21:14:16.500Z,82.39
2023-03-06T21:17:18.969Z,81.42
2023-03-06T21:20:22.346Z,81.65
2023-03-06T21:23:24.846Z,81.16
2023-03-06T21:26:29.599Z,81.05
2023-03-06T21:29:31.985Z,82.96
2023-03-06T21:32:34.728Z,84.37
2023-03-06T21:35:41.054Z,83.57
2023-03-06T21:38:43.452Z,83.18
2023-03-06T21:41:47.676Z,83.26
2023-03-06T21:44:50.020Z,83.00
2023-03-06T21:47:52.041Z,83.41
2023-03-06T21:51:03.890Z,82.47
2023-03-06T21:54:06.653Z,81.59
2023-03-06T21:57:08.676Z,83.04
2023-03-06T22:00:12.962Z,83.08
2023-03-06T22:03:15.118Z,82.97
2023-03-06T22:06:22.843Z,82.80
2023-03-06T22:09:24.911Z,83.29
2023-03-06T22:12:27.276Z,82.54
2023-03-06T22:15:29.398Z,82.11
2023-03-06T22:18:32.112Z,81.87
2023-03-06T22:21:34.294Z,82.44
2023-03-06T22:24:36.390Z,81.87
2023-03-06T22:27:38.401Z,80.34
2023-03-06T22:30:40.725Z,81.27
2023-03-06T22:33:43.829Z,80.44
2023-03-06T22:36:45.960Z,80.22
2023-03-06T22:39:48.149Z,80.33
2023-03-06T22:42:50.168Z,79.44
2023-03-06T22:45:53.025Z,78.83
2023-03-06T22:49:02.389Z,79.79
2023-03-06T22:52:04.553Z,81.34
2023-03-06T22:55:07.326Z,81.73
2023-03-06T22:58:09.428Z,81.95
2023-03-06T23:01:15.500Z,82.47
2023-03-06T23:04:18.410Z,83.51
2023-03-06T23:07:21.037Z,84.02
2023-03-06T23:10:24.598Z,83.45
2023-03-06T23:13:46.168Z,82.41
2023-03-06T23:17:06.830Z,82.32
2023-03-06T23:20:28.513Z,81.61
2023-03-06T23:23:51.361Z,82.17
2023-03-06T23:26:53.535Z,83.27
2023-03-06T23:29:58.994Z,85.13
2023-03-06T23:33:01.309Z,85.37
2023-03-06T23:36:05.977Z,84.65
2023-03-06T23:39:08.085Z,84.90
2023-03-06T23:42:10.359Z,84.50
2023-03-06T23:45:12.579Z,84.90
2023-03-06T23:48:14.692Z,83.72
2023-03-06T23:51:21.883Z,84.05
2023-03-06T23:54:23.993Z,83.29
2023-03-06T23:57:26.137Z,84.03
